sensor_id;sensor_type;location;lat;lon;timestamp;temperature;humidity
13707;DHT22;6925;47.816;13.072;2022-08-03T00:01:05;22.60;60.80
13707;DHT22;6925;47.816;13.072;2022-08-03T00:03:34;22.60;61.10
13707;DHT22;6925;47.816;13.072;2022-08-03T00:06:01;22.60;61.10
13707;DHT22;6925;47.816;13.072;2022-08-03T00:08:30;22.50;60.90
13707;DHT22;6925;47.816;13.072;2022-08-03T00:10:57;22.50;61.30
13707;DHT22;6925;47.816;13.072;2022-08-03T00:13:25;22.50;62.10
13707;DHT22;6925;47.816;13.072;2022-08-03T00:15:52;22.50;61.40
13707;DHT22;6925;47.816;13.072;2022-08-03T00:18:20;22.50;61.40
13707;DHT22;6925;47.816;13.072;2022-08-03T00:20:47;22.40;61.30
13707;DHT22;6925;47.816;13.072;2022-08-03T00:23:15;22.40;61.20
13707;DHT22;6925;47.816;13.072;2022-08-03T00:25:44;22.20;61.10
13707;DHT22;6925;47.816;13.072;2022-08-03T00:28:12;22.20;61.60
13707;DHT22;6925;47.816;13.072;2022-08-03T00:30:39;22.20;61.70
13707;DHT22;6925;47.816;13.072;2022-08-03T00:33:07;22.20;61.70
13707;DHT22;6925;47.816;13.072;2022-08-03T00:35:35;22.20;61.70
13707;DHT22;6925;47.816;13.072;2022-08-03T00:38:02;22.10;62.00
13707;DHT22;6925;47.816;13.072;2022-08-03T00:40:30;22.10;61.90
13707;DHT22;6925;47.816;13.072;2022-08-03T00:43:00;22.10;62.10
13707;DHT22;6925;47.816;13.072;2022-08-03T00:45:30;22.10;62.50
13707;DHT22;6925;47.816;13.072;2022-08-03T00:47:58;22.00;62.30
13707;DHT22;6925;47.816;13.072;2022-08-03T00:50:27;22.00;62.30
13707;DHT22;6925;47.816;13.072;2022-08-03T00:52:57;22.00;62.70
13707;DHT22;6925;47.816;13.072;2022-08-03T00:55:24;22.00;62.70
13707;DHT22;6925;47.816;13.072;2022-08-03T00:57:52;21.90;62.70
13707;DHT22;6925;47.816;13.072;2022-08-03T01:00:23;21.90;62.80
13707;DHT22;6925;47.816;13.072;2022-08-03T01:05:27;21.90;63.00
13707;DHT22;6925;47.816;13.072;2022-08-03T01:08:02;21.90;63.30
13707;DHT22;6925;47.816;13.072;2022-08-03T01:10:38;21.90;63.30
13707;DHT22;6925;47.816;13.072;2022-08-03T01:13:18;21.90;63.30
13707;DHT22;6925;47.816;13.072;2022-08-03T01:16:02;21.80;63.30
13707;DHT22;6925;47.816;13.072;2022-08-03T01:18:35;21.80;63.40
13707;DHT22;6925;47.816;13.072;2022-08-03T01:21:13;21.80;63.20
13707;DHT22;6925;47.816;13.072;2022-08-03T01:24:12;21.80;63.20
13707;DHT22;6925;47.816;13.072;2022-08-03T01:27:06;21.70;63.00
13707;DHT22;6925;47.816;13.072;2022-08-03T01:29:56;21.70;63.50
13707;DHT22;6925;47.816;13.072;2022-08-03T01:32:30;21.80;63.80
13707;DHT22;6925;47.816;13.072;2022-08-03T01:35:02;21.70;63.30
13707;DHT22;6925;47.816;13.072;2022-08-03T01:37:37;21.70;63.60
13707;DHT22;6925;47.816;13.072;2022-08-03T01:40:07;21.70;63.50
13707;DHT22;6925;47.816;13.072;2022-08-03T01:42:35;21.70;63.40
13707;DHT22;6925;47.816;13.072;2022-08-03T01:45:08;21.60;63.20
13707;DHT22;6925;47.816;13.072;2022-08-03T01:47:37;21.60;63.60
13707;DHT22;6925;47.816;13.072;2022-08-03T01:50:06;21.60;64.60
13707;DHT22;6925;47.816;13.072;2022-08-03T01:52:37;21.60;63.40
13707;DHT22;6925;47.816;13.072;2022-08-03T01:55:08;21.50;63.40
13707;DHT22;6925;47.816;13.072;2022-08-03T01:57:38;21.50;63.90
13707;DHT22;6925;47.816;13.072;2022-08-03T02:00:09;21.50;64.10
13707;DHT22;6925;47.816;13.072;2022-08-03T02:02:38;21.50;63.70
13707;DHT22;6925;47.816;13.072;2022-08-03T02:05:08;21.50;63.60
13707;DHT22;6925;47.816;13.072;2022-08-03T02:07:39;21.50;64.10
13707;DHT22;6925;47.816;13.072;2022-08-03T02:10:08;21.40;63.50
13707;DHT22;6925;47.816;13.072;2022-08-03T02:12:39;21.50;63.70
13707;DHT22;6925;47.816;13.072;2022-08-03T02:15:08;21.40;63.90
13707;DHT22;6925;47.816;13.072;2022-08-03T02:17:37;21.40;64.00
13707;DHT22;6925;47.816;13.072;2022-08-03T02:20:07;21.40;64.10
13707;DHT22;6925;47.816;13.072;2022-08-03T02:22:38;21.40;64.50
13707;DHT22;6925;47.816;13.072;2022-08-03T02:25:07;21.40;64.40
13707;DHT22;6925;47.816;13.072;2022-08-03T02:27:37;21.40;64.50
13707;DHT22;6925;47.816;13.072;2022-08-03T02:30:09;21.40;64.30
13707;DHT22;6925;47.816;13.072;2022-08-03T02:32:39;21.40;64.60
13707;DHT22;6925;47.816;13.072;2022-08-03T02:35:10;21.30;64.40
13707;DHT22;6925;47.816;13.072;2022-08-03T02:37:42;21.40;64.60
13707;DHT22;6925;47.816;13.072;2022-08-03T02:40:12;21.30;64.30
13707;DHT22;6925;47.816;13.072;2022-08-03T02:42:41;21.30;64.70
13707;DHT22;6925;47.816;13.072;2022-08-03T02:45:15;21.30;64.70
13707;DHT22;6925;47.816;13.072;2022-08-03T02:47:45;21.30;64.30
13707;DHT22;6925;47.816;13.072;2022-08-03T02:50:15;21.20;64.30
13707;DHT22;6925;47.816;13.072;2022-08-03T02:52:44;21.20;64.80
13707;DHT22;6925;47.816;13.072;2022-08-03T02:55:13;21.20;65.00
13707;DHT22;6925;47.816;13.072;2022-08-03T02:57:47;21.20;64.70
13707;DHT22;6925;47.816;13.072;2022-08-03T03:02:52;21.10;65.00
13707;DHT22;6925;47.816;13.072;2022-08-03T03:05:26;21.10;65.10
13707;DHT22;6925;47.816;13.072;2022-08-03T03:07:54;21.10;64.30
13707;DHT22;6925;47.816;13.072;2022-08-03T03:10:22;21.00;64.60
13707;DHT22;6925;47.816;13.072;2022-08-03T03:12:52;21.00;65.00
13707;DHT22;6925;47.816;13.072;2022-08-03T03:15:21;21.00;65.10
13707;DHT22;6925;47.816;13.072;2022-08-03T03:17:52;21.00;65.10
13707;DHT22;6925;47.816;13.072;2022-08-03T03:20:20;21.00;65.40
13707;DHT22;6925;47.816;13.072;2022-08-03T03:22:50;21.00;65.20
13707;DHT22;6925;47.816;13.072;2022-08-03T03:25:18;21.00;65.10
13707;DHT22;6925;47.816;13.072;2022-08-03T03:27:47;21.00;65.20
13707;DHT22;6925;47.816;13.072;2022-08-03T03:30:14;21.00;65.20
13707;DHT22;6925;47.816;13.072;2022-08-03T03:32:42;21.00;65.20
13707;DHT22;6925;47.816;13.072;2022-08-03T03:35:12;21.00;65.20
13707;DHT22;6925;47.816;13.072;2022-08-03T03:37:39;21.00;65.40
13707;DHT22;6925;47.816;13.072;2022-08-03T03:40:10;20.90;65.30
13707;DHT22;6925;47.816;13.072;2022-08-03T03:42:38;20.90;65.50
13707;DHT22;6925;47.816;13.072;2022-08-03T03:45:07;20.90;65.60
13707;DHT22;6925;47.816;13.072;2022-08-03T03:47:34;20.90;65.50
13707;DHT22;6925;47.816;13.072;2022-08-03T03:56:56;20.80;65.90
13707;DHT22;6925;47.816;13.072;2022-08-03T03:59:28;20.80;65.90
13707;DHT22;6925;47.816;13.072;2022-08-03T04:02:02;20.80;66.20
13707;DHT22;6925;47.816;13.072;2022-08-03T04:04:43;20.80;65.30
13707;DHT22;6925;47.816;13.072;2022-08-03T04:07:33;20.80;65.60
13707;DHT22;6925;47.816;13.072;2022-08-03T04:10:22;20.60;66.40
13707;DHT22;6925;47.816;13.072;2022-08-03T04:21:00;20.60;66.60
13707;DHT22;6925;47.816;13.072;2022-08-03T04:23:32;20.60;66.40
13707;DHT22;6925;47.816;13.072;2022-08-03T04:26:01;20.60;66.80
13707;DHT22;6925;47.816;13.072;2022-08-03T04:28:33;20.60;66.20
13707;DHT22;6925;47.816;13.072;2022-08-03T04:31:00;20.70;66.70
13707;DHT22;6925;47.816;13.072;2022-08-03T04:33:30;20.60;66.60
13707;DHT22;6925;47.816;13.072;2022-08-03T04:36:03;20.60;66.60
13707;DHT22;6925;47.816;13.072;2022-08-03T04:38:37;20.60;66.40
13707;DHT22;6925;47.816;13.072;2022-08-03T04:41:05;20.60;66.90
13707;DHT22;6925;47.816;13.072;2022-08-03T04:43:33;20.60;67.10
13707;DHT22;6925;47.816;13.072;2022-08-03T04:46:05;20.60;67.20
13707;DHT22;6925;47.816;13.072;2022-08-03T04:48:33;20.70;66.40
13707;DHT22;6925;47.816;13.072;2022-08-03T04:51:02;20.60;66.50
13707;DHT22;6925;47.816;13.072;2022-08-03T04:53:30;20.60;66.90
13707;DHT22;6925;47.816;13.072;2022-08-03T04:56:03;20.70;67.50
13707;DHT22;6925;47.816;13.072;2022-08-03T04:58:31;20.70;67.30
13707;DHT22;6925;47.816;13.072;2022-08-03T05:04:20;20.80;67.40
13707;DHT22;6925;47.816;13.072;2022-08-03T05:06:49;20.90;67.40
13707;DHT22;6925;47.816;13.072;2022-08-03T05:09:17;20.90;67.60
13707;DHT22;6925;47.816;13.072;2022-08-03T05:11:47;21.00;67.40
13707;DHT22;6925;47.816;13.072;2022-08-03T05:14:25;21.00;67.40
13707;DHT22;6925;47.816;13.072;2022-08-03T05:16:53;21.00;67.40
13707;DHT22;6925;47.816;13.072;2022-08-03T05:19:48;21.10;67.20
13707;DHT22;6925;47.816;13.072;2022-08-03T05:22:21;21.00;66.90
13707;DHT22;6925;47.816;13.072;2022-08-03T05:24:50;21.10;67.40
13707;DHT22;6925;47.816;13.072;2022-08-03T05:27:54;21.10;67.60
13707;DHT22;6925;47.816;13.072;2022-08-03T05:30:24;21.10;67.00
13707;DHT22;6925;47.816;13.072;2022-08-03T05:34:10;21.10;66.70
13707;DHT22;6925;47.816;13.072;2022-08-03T05:35:56;21.10;67.10
13707;DHT22;6925;47.816;13.072;2022-08-03T05:38:26;21.10;67.30
13707;DHT22;6925;47.816;13.072;2022-08-03T05:40:53;21.20;67.10
13707;DHT22;6925;47.816;13.072;2022-08-03T05:43:20;21.20;67.30
13707;DHT22;6925;47.816;13.072;2022-08-03T05:45:48;21.30;67.50
13707;DHT22;6925;47.816;13.072;2022-08-03T05:48:20;21.30;67.60
13707;DHT22;6925;47.816;13.072;2022-08-03T05:50:54;21.40;67.80
13707;DHT22;6925;47.816;13.072;2022-08-03T05:53:32;21.50;67.70
13707;DHT22;6925;47.816;13.072;2022-08-03T05:55:59;21.50;67.20
13707;DHT22;6925;47.816;13.072;2022-08-03T05:58:30;21.50;67.20
13707;DHT22;6925;47.816;13.072;2022-08-03T06:00:58;21.60;66.80
13707;DHT22;6925;47.816;13.072;2022-08-03T06:03:25;21.50;66.30
13707;DHT22;6925;47.816;13.072;2022-08-03T06:05:54;21.50;66.40
13707;DHT22;6925;47.816;13.072;2022-08-03T06:08:22;21.50;66.90
13707;DHT22;6925;47.816;13.072;2022-08-03T06:10:51;21.60;66.60
13707;DHT22;6925;47.816;13.072;2022-08-03T06:13:18;21.60;66.70
13707;DHT22;6925;47.816;13.072;2022-08-03T06:15:46;21.60;66.70
13707;DHT22;6925;47.816;13.072;2022-08-03T06:18:14;21.70;66.80
13707;DHT22;6925;47.816;13.072;2022-08-03T06:20:42;21.70;66.50
13707;DHT22;6925;47.816;13.072;2022-08-03T06:23:11;21.80;66.90
13707;DHT22;6925;47.816;13.072;2022-08-03T06:25:40;21.80;67.10
13707;DHT22;6925;47.816;13.072;2022-08-03T06:28:09;21.90;66.70
13707;DHT22;6925;47.816;13.072;2022-08-03T06:30:38;22.00;67.00
13707;DHT22;6925;47.816;13.072;2022-08-03T06:38:15;22.10;66.10
13707;DHT22;6925;47.816;13.072;2022-08-03T06:40:42;22.10;66.10
13707;DHT22;6925;47.816;13.072;2022-08-03T06:43:11;22.20;66.40
13707;DHT22;6925;47.816;13.072;2022-08-03T06:45:40;22.20;66.20
13707;DHT22;6925;47.816;13.072;2022-08-03T06:48:09;22.20;65.90
13707;DHT22;6925;47.816;13.072;2022-08-03T06:50:40;22.20;66.30
13707;DHT22;6925;47.816;13.072;2022-08-03T06:53:09;22.30;66.60
13707;DHT22;6925;47.816;13.072;2022-08-03T06:55:36;22.40;66.50
13707;DHT22;6925;47.816;13.072;2022-08-03T06:58:04;22.40;65.90
13707;DHT22;6925;47.816;13.072;2022-08-03T07:00:33;22.50;65.80
13707;DHT22;6925;47.816;13.072;2022-08-03T07:03:00;22.50;65.50
13707;DHT22;6925;47.816;13.072;2022-08-03T07:05:27;22.50;65.50
13707;DHT22;6925;47.816;13.072;2022-08-03T07:07:55;22.60;66.10
13707;DHT22;6925;47.816;13.072;2022-08-03T07:10:24;22.70;66.00
13707;DHT22;6925;47.816;13.072;2022-08-03T07:12:52;22.70;65.20
13707;DHT22;6925;47.816;13.072;2022-08-03T07:15:20;22.70;65.30
13707;DHT22;6925;47.816;13.072;2022-08-03T07:17:49;22.70;65.30
13707;DHT22;6925;47.816;13.072;2022-08-03T07:20:16;22.80;65.10
13707;DHT22;6925;47.816;13.072;2022-08-03T07:22:44;22.80;64.30
13707;DHT22;6925;47.816;13.072;2022-08-03T07:25:11;22.80;64.70
13707;DHT22;6925;47.816;13.072;2022-08-03T07:27:42;22.80;65.00
13707;DHT22;6925;47.816;13.072;2022-08-03T07:30:10;22.90;64.70
13707;DHT22;6925;47.816;13.072;2022-08-03T07:32:38;23.00;64.20
13707;DHT22;6925;47.816;13.072;2022-08-03T07:35:08;23.00;64.10
13707;DHT22;6925;47.816;13.072;2022-08-03T07:37:36;23.10;64.90
13707;DHT22;6925;47.816;13.072;2022-08-03T07:40:05;23.10;64.30
13707;DHT22;6925;47.816;13.072;2022-08-03T07:42:34;23.20;65.10
13707;DHT22;6925;47.816;13.072;2022-08-03T07:45:02;23.30;65.20
13707;DHT22;6925;47.816;13.072;2022-08-03T07:47:37;23.30;66.20
13707;DHT22;6925;47.816;13.072;2022-08-03T07:50:08;23.40;66.30
13707;DHT22;6925;47.816;13.072;2022-08-03T07:52:35;23.40;66.00
13707;DHT22;6925;47.816;13.072;2022-08-03T07:55:18;23.50;64.90
13707;DHT22;6925;47.816;13.072;2022-08-03T07:57:46;23.40;64.70
13707;DHT22;6925;47.816;13.072;2022-08-03T08:00:16;23.50;65.40
13707;DHT22;6925;47.816;13.072;2022-08-03T08:02:44;23.50;65.30
13707;DHT22;6925;47.816;13.072;2022-08-03T08:05:13;23.60;64.90
13707;DHT22;6925;47.816;13.072;2022-08-03T08:07:40;23.60;64.40
13707;DHT22;6925;47.816;13.072;2022-08-03T08:10:08;23.60;63.90
13707;DHT22;6925;47.816;13.072;2022-08-03T08:12:36;23.60;65.10
13707;DHT22;6925;47.816;13.072;2022-08-03T08:15:07;23.70;65.50
13707;DHT22;6925;47.816;13.072;2022-08-03T08:17:41;23.80;65.00
13707;DHT22;6925;47.816;13.072;2022-08-03T08:20:14;23.80;65.30
13707;DHT22;6925;47.816;13.072;2022-08-03T08:22:41;24.00;65.30
13707;DHT22;6925;47.816;13.072;2022-08-03T08:25:09;24.00;64.10
13707;DHT22;6925;47.816;13.072;2022-08-03T08:27:44;24.00;64.30
13707;DHT22;6925;47.816;13.072;2022-08-03T08:30:12;24.00;64.30
13707;DHT22;6925;47.816;13.072;2022-08-03T08:32:40;24.00;64.20
13707;DHT22;6925;47.816;13.072;2022-08-03T08:35:09;24.10;64.90
13707;DHT22;6925;47.816;13.072;2022-08-03T08:37:38;24.10;65.10
13707;DHT22;6925;47.816;13.072;2022-08-03T08:40:07;24.20;65.80
13707;DHT22;6925;47.816;13.072;2022-08-03T08:42:36;24.30;66.50
13707;DHT22;6925;47.816;13.072;2022-08-03T08:45:05;24.40;64.90
13707;DHT22;6925;47.816;13.072;2022-08-03T08:47:36;24.50;64.60
13707;DHT22;6925;47.816;13.072;2022-08-03T08:50:06;24.50;65.00
13707;DHT22;6925;47.816;13.072;2022-08-03T08:52:39;24.60;64.60
13707;DHT22;6925;47.816;13.072;2022-08-03T08:55:09;24.70;64.00
13707;DHT22;6925;47.816;13.072;2022-08-03T08:57:43;24.70;64.20
13707;DHT22;6925;47.816;13.072;2022-08-03T09:00:12;24.80;64.80
13707;DHT22;6925;47.816;13.072;2022-08-03T09:02:41;25.00;65.00
13707;DHT22;6925;47.816;13.072;2022-08-03T09:05:09;25.10;64.80
13707;DHT22;6925;47.816;13.072;2022-08-03T09:07:40;25.20;64.10
13707;DHT22;6925;47.816;13.072;2022-08-03T09:10:09;25.40;63.00
13707;DHT22;6925;47.816;13.072;2022-08-03T09:12:37;25.50;63.50
13707;DHT22;6925;47.816;13.072;2022-08-03T09:15:19;25.70;63.90
13707;DHT22;6925;47.816;13.072;2022-08-03T09:17:49;25.80;63.30
13707;DHT22;6925;47.816;13.072;2022-08-03T09:20:18;26.00;62.50
13707;DHT22;6925;47.816;13.072;2022-08-03T09:22:55;26.10;62.70
13707;DHT22;6925;47.816;13.072;2022-08-03T09:25:31;26.20;62.60
13707;DHT22;6925;47.816;13.072;2022-08-03T09:28:07;26.50;62.10
13707;DHT22;6925;47.816;13.072;2022-08-03T09:30:42;26.70;61.60
13707;DHT22;6925;47.816;13.072;2022-08-03T09:33:11;26.90;61.10
13707;DHT22;6925;47.816;13.072;2022-08-03T09:35:41;27.00;61.30
13707;DHT22;6925;47.816;13.072;2022-08-03T09:38:12;27.20;59.90
13707;DHT22;6925;47.816;13.072;2022-08-03T09:40:40;27.40;61.20
13707;DHT22;6925;47.816;13.072;2022-08-03T09:43:10;27.60;60.00
13707;DHT22;6925;47.816;13.072;2022-08-03T09:45:41;27.70;59.60
13707;DHT22;6925;47.816;13.072;2022-08-03T09:48:23;27.80;58.40
13707;DHT22;6925;47.816;13.072;2022-08-03T09:50:51;28.00;59.00
13707;DHT22;6925;47.816;13.072;2022-08-03T09:53:21;28.10;58.60
13707;DHT22;6925;47.816;13.072;2022-08-03T09:55:51;28.30;58.40
13707;DHT22;6925;47.816;13.072;2022-08-03T09:58:23;28.40;57.60
13707;DHT22;6925;47.816;13.072;2022-08-03T10:00:56;28.50;56.10
13707;DHT22;6925;47.816;13.072;2022-08-03T10:03:25;28.60;57.10
13707;DHT22;6925;47.816;13.072;2022-08-03T10:05:53;28.80;57.30
13707;DHT22;6925;47.816;13.072;2022-08-03T10:08:24;29.00;56.20
13707;DHT22;6925;47.816;13.072;2022-08-03T10:10:51;29.00;56.70
13707;DHT22;6925;47.816;13.072;2022-08-03T10:13:21;29.10;56.40
13707;DHT22;6925;47.816;13.072;2022-08-03T10:15:51;29.30;55.50
13707;DHT22;6925;47.816;13.072;2022-08-03T10:18:32;29.60;56.10
13707;DHT22;6925;47.816;13.072;2022-08-03T10:21:03;29.80;54.70
13707;DHT22;6925;47.816;13.072;2022-08-03T10:23:34;30.00;54.10
13707;DHT22;6925;47.816;13.072;2022-08-03T10:26:03;30.10;53.60
13707;DHT22;6925;47.816;13.072;2022-08-03T10:28:35;30.10;54.60
13707;DHT22;6925;47.816;13.072;2022-08-03T10:31:15;30.20;52.20
13707;DHT22;6925;47.816;13.072;2022-08-03T10:33:49;30.40;52.30
13707;DHT22;6925;47.816;13.072;2022-08-03T10:36:17;30.50;51.60
13707;DHT22;6925;47.816;13.072;2022-08-03T10:38:48;30.50;50.90
13707;DHT22;6925;47.816;13.072;2022-08-03T10:41:31;30.50;51.50
13707;DHT22;6925;47.816;13.072;2022-08-03T10:44:03;30.60;50.70
13707;DHT22;6925;47.816;13.072;2022-08-03T10:46:32;30.50;49.70
13707;DHT22;6925;47.816;13.072;2022-08-03T10:49:02;30.50;48.90
13707;DHT22;6925;47.816;13.072;2022-08-03T10:51:29;30.50;49.60
13707;DHT22;6925;47.816;13.072;2022-08-03T10:53:59;30.60;49.70
13707;DHT22;6925;47.816;13.072;2022-08-03T10:56:39;30.70;49.70
13707;DHT22;6925;47.816;13.072;2022-08-03T10:59:56;30.90;48.00
13707;DHT22;6925;47.816;13.072;2022-08-03T11:03:00;30.90;47.20
13707;DHT22;6925;47.816;13.072;2022-08-03T11:05:29;31.00;47.70
13707;DHT22;6925;47.816;13.072;2022-08-03T11:08:24;31.10;46.60
13707;DHT22;6925;47.816;13.072;2022-08-03T11:10:57;31.00;46.40
13707;DHT22;6925;47.816;13.072;2022-08-03T11:13:27;31.00;47.40
13707;DHT22;6925;47.816;13.072;2022-08-03T11:15:58;31.20;47.50
13707;DHT22;6925;47.816;13.072;2022-08-03T11:18:26;31.40;48.10
13707;DHT22;6925;47.816;13.072;2022-08-03T11:20:54;31.50;47.70
13707;DHT22;6925;47.816;13.072;2022-08-03T11:23:40;31.60;47.00
13707;DHT22;6925;47.816;13.072;2022-08-03T11:26:14;31.50;48.60
13707;DHT22;6925;47.816;13.072;2022-08-03T11:28:43;31.50;46.50
13707;DHT22;6925;47.816;13.072;2022-08-03T11:31:43;31.50;46.80
13707;DHT22;6925;47.816;13.072;2022-08-03T11:34:12;31.40;47.90
13707;DHT22;6925;47.816;13.072;2022-08-03T11:37:17;31.40;46.40
13707;DHT22;6925;47.816;13.072;2022-08-03T11:39:46;31.70;47.50
13707;DHT22;6925;47.816;13.072;2022-08-03T12:16:29;33.90;42.50
13707;DHT22;6925;47.816;13.072;2022-08-03T12:18:58;34.10;45.30
13707;DHT22;6925;47.816;13.072;2022-08-03T12:21:34;34.30;42.30
13707;DHT22;6925;47.816;13.072;2022-08-03T12:24:25;34.30;42.10
13707;DHT22;6925;47.816;13.072;2022-08-03T12:26:59;34.60;41.10
13707;DHT22;6925;47.816;13.072;2022-08-03T12:29:28;34.60;41.00
13707;DHT22;6925;47.816;13.072;2022-08-03T12:31:58;34.70;41.80
13707;DHT22;6925;47.816;13.072;2022-08-03T12:45:51;35.40;39.30
13707;DHT22;6925;47.816;13.072;2022-08-03T12:48:57;35.70;39.50
13707;DHT22;6925;47.816;13.072;2022-08-03T12:51:36;35.70;39.00
13707;DHT22;6925;47.816;13.072;2022-08-03T12:57:40;36.00;36.30
13707;DHT22;6925;47.816;13.072;2022-08-03T13:00:12;36.10;37.60
13707;DHT22;6925;47.816;13.072;2022-08-03T13:02:58;36.10;37.60
13707;DHT22;6925;47.816;13.072;2022-08-03T13:05:31;36.10;37.30
13707;DHT22;6925;47.816;13.072;2022-08-03T13:08:17;36.20;38.10
13707;DHT22;6925;47.816;13.072;2022-08-03T13:10:45;36.40;37.50
13707;DHT22;6925;47.816;13.072;2022-08-03T13:13:12;36.40;37.30
13707;DHT22;6925;47.816;13.072;2022-08-03T13:15:40;36.60;35.90
13707;DHT22;6925;47.816;13.072;2022-08-03T13:18:09;36.60;36.10
13707;DHT22;6925;47.816;13.072;2022-08-03T13:20:38;36.50;34.40
13707;DHT22;6925;47.816;13.072;2022-08-03T13:23:06;36.50;36.30
13707;DHT22;6925;47.816;13.072;2022-08-03T13:25:34;36.60;37.30
13707;DHT22;6925;47.816;13.072;2022-08-03T13:28:01;36.80;37.00
13707;DHT22;6925;47.816;13.072;2022-08-03T13:33:13;37.00;35.90
13707;DHT22;6925;47.816;13.072;2022-08-03T13:59:00;37.20;35.80
13707;DHT22;6925;47.816;13.072;2022-08-03T14:22:15;37.50;35.20
13707;DHT22;6925;47.816;13.072;2022-08-03T14:24:42;37.60;35.30
13707;DHT22;6925;47.816;13.072;2022-08-03T14:27:09;37.70;34.20
13707;DHT22;6925;47.816;13.072;2022-08-03T14:29:37;37.90;34.20
13707;DHT22;6925;47.816;13.072;2022-08-03T14:32:09;37.80;35.40
13707;DHT22;6925;47.816;13.072;2022-08-03T14:34:37;37.80;35.30
13707;DHT22;6925;47.816;13.072;2022-08-03T14:37:04;38.00;34.80
13707;DHT22;6925;47.816;13.072;2022-08-03T14:39:33;38.20;34.20
13707;DHT22;6925;47.816;13.072;2022-08-03T14:42:00;38.10;34.90
13707;DHT22;6925;47.816;13.072;2022-08-03T14:44:28;38.10;34.30
13707;DHT22;6925;47.816;13.072;2022-08-03T14:46:55;38.10;34.10
13707;DHT22;6925;47.816;13.072;2022-08-03T14:49:22;37.90;34.10
13707;DHT22;6925;47.816;13.072;2022-08-03T14:51:50;37.90;33.60
13707;DHT22;6925;47.816;13.072;2022-08-03T14:54:19;37.90;34.00
13707;DHT22;6925;47.816;13.072;2022-08-03T14:56:48;38.10;34.10
13707;DHT22;6925;47.816;13.072;2022-08-03T14:59:15;38.10;34.40
13707;DHT22;6925;47.816;13.072;2022-08-03T15:01:43;38.10;34.70
13707;DHT22;6925;47.816;13.072;2022-08-03T15:04:10;38.00;33.50
13707;DHT22;6925;47.816;13.072;2022-08-03T15:06:37;37.90;34.30
13707;DHT22;6925;47.816;13.072;2022-08-03T15:09:04;37.90;35.70
13707;DHT22;6925;47.816;13.072;2022-08-03T15:11:32;38.00;33.60
13707;DHT22;6925;47.816;13.072;2022-08-03T15:14:00;37.80;33.60
13707;DHT22;6925;47.816;13.072;2022-08-03T15:16:30;37.70;34.60
13707;DHT22;6925;47.816;13.072;2022-08-03T15:18:57;37.80;35.40
13707;DHT22;6925;47.816;13.072;2022-08-03T15:21:25;37.80;34.80
13707;DHT22;6925;47.816;13.072;2022-08-03T15:23:53;37.70;34.50
13707;DHT22;6925;47.816;13.072;2022-08-03T15:26:20;37.60;33.60
13707;DHT22;6925;47.816;13.072;2022-08-03T15:28:47;37.50;34.50
13707;DHT22;6925;47.816;13.072;2022-08-03T15:31:20;37.60;34.70
13707;DHT22;6925;47.816;13.072;2022-08-03T15:33:47;37.60;34.70
13707;DHT22;6925;47.816;13.072;2022-08-03T15:36:15;37.50;33.70
13707;DHT22;6925;47.816;13.072;2022-08-03T15:38:43;37.40;36.80
13707;DHT22;6925;47.816;13.072;2022-08-03T15:41:10;37.40;36.30
13707;DHT22;6925;47.816;13.072;2022-08-03T15:43:38;37.40;36.70
13707;DHT22;6925;47.816;13.072;2022-08-03T15:46:06;37.30;34.90
13707;DHT22;6925;47.816;13.072;2022-08-03T15:48:35;37.20;36.70
13707;DHT22;6925;47.816;13.072;2022-08-03T15:51:03;37.10;36.40
13707;DHT22;6925;47.816;13.072;2022-08-03T15:53:30;37.00;36.60
13707;DHT22;6925;47.816;13.072;2022-08-03T15:55:58;37.00;36.60
13707;DHT22;6925;47.816;13.072;2022-08-03T15:58:25;36.90;36.60
13707;DHT22;6925;47.816;13.072;2022-08-03T16:00:55;36.90;36.90
13707;DHT22;6925;47.816;13.072;2022-08-03T16:03:23;36.80;35.80
13707;DHT22;6925;47.816;13.072;2022-08-03T16:05:52;36.60;34.50
13707;DHT22;6925;47.816;13.072;2022-08-03T16:08:19;36.40;35.10
13707;DHT22;6925;47.816;13.072;2022-08-03T16:10:46;36.20;35.40
13707;DHT22;6925;47.816;13.072;2022-08-03T16:13:14;36.20;37.10
13707;DHT22;6925;47.816;13.072;2022-08-03T16:15:42;36.20;36.50
13707;DHT22;6925;47.816;13.072;2022-08-03T16:18:09;36.20;37.40
13707;DHT22;6925;47.816;13.072;2022-08-03T16:20:37;36.20;36.40
13707;DHT22;6925;47.816;13.072;2022-08-03T16:23:06;36.10;38.10
13707;DHT22;6925;47.816;13.072;2022-08-03T16:25:33;36.00;37.80
13707;DHT22;6925;47.816;13.072;2022-08-03T16:28:11;36.00;38.30
13707;DHT22;6925;47.816;13.072;2022-08-03T16:30:58;35.80;37.40
13707;DHT22;6925;47.816;13.072;2022-08-03T16:33:29;35.70;37.40
13707;DHT22;6925;47.816;13.072;2022-08-03T16:35:56;35.60;38.30
13707;DHT22;6925;47.816;13.072;2022-08-03T16:41:52;35.40;39.10
13707;DHT22;6925;47.816;13.072;2022-08-03T16:44:19;35.30;37.90
13707;DHT22;6925;47.816;13.072;2022-08-03T16:46:47;35.10;37.60
13707;DHT22;6925;47.816;13.072;2022-08-03T16:49:15;35.00;38.30
13707;DHT22;6925;47.816;13.072;2022-08-03T16:51:42;34.90;38.90
13707;DHT22;6925;47.816;13.072;2022-08-03T16:54:15;34.80;38.40
13707;DHT22;6925;47.816;13.072;2022-08-03T16:56:45;34.70;39.40
13707;DHT22;6925;47.816;13.072;2022-08-03T16:59:14;34.60;39.50
13707;DHT22;6925;47.816;13.072;2022-08-03T17:01:43;34.60;40.00
13707;DHT22;6925;47.816;13.072;2022-08-03T17:04:12;34.50;39.30
13707;DHT22;6925;47.816;13.072;2022-08-03T17:06:41;34.30;40.00
13707;DHT22;6925;47.816;13.072;2022-08-03T17:09:10;34.20;40.30
13707;DHT22;6925;47.816;13.072;2022-08-03T17:11:40;34.10;40.30
13707;DHT22;6925;47.816;13.072;2022-08-03T17:14:07;34.00;40.50
13707;DHT22;6925;47.816;13.072;2022-08-03T17:16:42;33.80;40.60
13707;DHT22;6925;47.816;13.072;2022-08-03T17:19:11;33.70;40.80
13707;DHT22;6925;47.816;13.072;2022-08-03T17:21:58;33.60;41.00
13707;DHT22;6925;47.816;13.072;2022-08-03T17:24:30;33.50;41.20
13707;DHT22;6925;47.816;13.072;2022-08-03T17:27:03;33.30;41.30
13707;DHT22;6925;47.816;13.072;2022-08-03T17:29:33;33.30;41.40
13707;DHT22;6925;47.816;13.072;2022-08-03T17:32:03;33.10;40.70
13707;DHT22;6925;47.816;13.072;2022-08-03T17:34:30;33.00;41.00
13707;DHT22;6925;47.816;13.072;2022-08-03T17:36:58;32.80;41.90
13707;DHT22;6925;47.816;13.072;2022-08-03T17:39:26;32.70;42.10
13707;DHT22;6925;47.816;13.072;2022-08-03T17:41:53;32.60;42.20
13707;DHT22;6925;47.816;13.072;2022-08-03T17:44:25;32.60;42.20
13707;DHT22;6925;47.816;13.072;2022-08-03T17:46:53;32.40;42.20
13707;DHT22;6925;47.816;13.072;2022-08-03T17:49:22;32.20;42.30
13707;DHT22;6925;47.816;13.072;2022-08-03T17:52:00;32.20;43.60
13707;DHT22;6925;47.816;13.072;2022-08-03T17:54:40;32.10;43.20
13707;DHT22;6925;47.816;13.072;2022-08-03T17:57:27;32.00;43.30
13707;DHT22;6925;47.816;13.072;2022-08-03T18:00:03;31.80;43.60
13707;DHT22;6925;47.816;13.072;2022-08-03T18:03:00;31.70;43.80